createdAt,value
2018-08-04T00:00:24.720Z,63.7
2018-08-04T00:01:24.726Z,64.31
2018-08-04T00:02:24.463Z,64.18
2018-08-04T00:03:24.715Z,64.86
2018-08-04T00:04:24.711Z,65.14
2018-08-04T00:05:24.713Z,65.72
2018-08-04T00:06:24.710Z,65.53
2018-08-04T00:07:24.709Z,65.63
2018-08-04T00:08:24.708Z,66.11
2018-08-04T00:09:24.707Z,66.2
2018-08-04T00:10:24.704Z,66.2
2018-08-04T00:11:24.452Z,66.11
2018-08-04T00:12:24.702Z,66.3
2018-08-04T00:13:24.709Z,66.97
2018-08-04T00:14:24.451Z,66.97
2018-08-04T00:15:24.774Z,67.27
2018-08-04T00:16:24.697Z,67.65
2018-08-04T00:17:24.703Z,67.75
2018-08-04T00:18:24.693Z,67.65
2018-08-04T00:19:24.697Z,68.04
2018-08-04T00:20:24.689Z,67.94
2018-08-04T00:21:24.695Z,68.39
2018-08-04T00:22:24.435Z,68.13
2018-08-04T00:23:24.685Z,68.52
2018-08-04T00:24:24.684Z,68.39
2018-08-04T00:25:24.683Z,68.68
2018-08-04T00:26:24.680Z,69.26
2018-08-04T00:27:24.690Z,69.07
2018-08-04T00:28:24.677Z,68.97
2018-08-04T00:29:24.423Z,69.35
2018-08-04T00:30:24.674Z,69.45
2018-08-04T00:31:24.676Z,69.55
2018-08-04T00:32:24.676Z,70.51
2018-08-04T00:33:24.669Z,70.13
2018-08-04T00:34:24.667Z,70.42
2018-08-04T00:35:24.421Z,70.13
2018-08-04T00:36:24.675Z,71
2018-08-04T00:37:24.661Z,71.09
2018-08-04T00:38:24.660Z,71.09
2018-08-04T00:39:24.658Z,71.38
2018-08-04T00:40:24.659Z,71.19
2018-08-04T00:41:24.405Z,71.44
2018-08-04T00:42:24.657Z,71.44
2018-08-04T00:43:24.658Z,71.44
2018-08-04T00:44:24.666Z,71.92
2018-08-04T00:45:24.651Z,71.96
2018-08-04T00:46:24.645Z,71.92
2018-08-04T00:47:24.645Z,71.83
2018-08-04T00:48:24.391Z,71.92
2018-08-04T00:49:24.641Z,71.92
2018-08-04T00:50:24.644Z,71.92
2018-08-04T00:51:24.645Z,72.02
2018-08-04T00:52:24.635Z,71.25
2018-08-04T00:53:24.635Z,71.44
2018-08-04T00:54:24.631Z,70.96
2018-08-04T00:55:24.632Z,70.86
2018-08-04T00:56:24.637Z,70.86
2018-08-04T00:57:24.627Z,71.06
2018-08-04T00:58:24.632Z,70.57
2018-08-04T00:59:24.628Z,70.96
2018-08-04T01:00:24.368Z,71.15
2018-08-04T01:01:24.618Z,70.86
2018-08-04T01:02:24.617Z,71.06
2018-08-04T01:03:24.366Z,71.15
2018-08-04T01:04:24.613Z,71.15
2018-08-04T01:05:24.610Z,71.15
2018-08-04T01:06:24.609Z,71.64
2018-08-04T01:07:24.610Z,71.92
2018-08-04T01:08:24.613Z,72.31
2018-08-04T01:09:24.602Z,72.41
2018-08-04T01:10:24.348Z,72.02
2018-08-04T01:11:24.598Z,71.92
2018-08-04T01:12:24.596Z,71.92
2018-08-04T01:13:24.604Z,71.64
2018-08-04T01:14:24.594Z,71.25
2018-08-04T01:15:24.591Z,71.73
2018-08-04T01:16:24.593Z,71.73
2018-08-04T01:17:24.584Z,71.92
2018-08-04T01:18:24.590Z,72.41
2018-08-04T01:19:24.582Z,71.92
2018-08-04T01:20:24.580Z,71.92
2018-08-04T01:21:24.578Z,71.54
2018-08-04T01:22:24.576Z,71.64
2018-08-04T01:23:24.577Z,71.25
2018-08-04T01:24:24.570Z,71.92
2018-08-04T01:25:24.319Z,71.25
2018-08-04T01:26:24.316Z,72.12
2018-08-04T01:28:24.562Z,71.44
2018-08-04T01:29:24.565Z,71.15
2018-08-04T01:30:24.564Z,70.96
2018-08-04T01:31:24.558Z,70.76
2018-08-04T01:32:24.555Z,71.44
2018-08-04T01:33:24.555Z,71.41
2018-08-04T01:34:24.554Z,71.64
2018-08-04T01:35:24.548Z,71.5
2018-08-04T01:36:24.564Z,71.31
2018-08-04T01:37:24.747Z,71.31
2018-08-04T01:38:24.543Z,71.02
2018-08-04T01:39:24.743Z,70.96
2018-08-04T01:40:24.289Z,71.12
2018-08-04T01:41:24.540Z,71.5
2018-08-04T01:43:24.534Z,71.89
2018-08-04T01:44:24.533Z,71.89
2018-08-04T01:45:24.530Z,71.5
2018-08-04T01:47:24.523Z,71.79
2018-08-04T01:50:24.769Z,71.89
2018-08-04T01:51:24.516Z,71.5
2018-08-04T01:52:24.263Z,71.89
2018-08-04T01:53:24.510Z,71.98
2018-08-04T01:54:24.512Z,72.08
2018-08-04T01:55:24.514Z,72.18
2018-08-04T01:56:24.505Z,71.6
2018-08-04T01:57:24.254Z,71.7
2018-08-04T01:58:24.705Z,71.98
2018-08-04T01:59:24.501Z,72.18
2018-08-04T02:00:24.497Z,71.98
2018-08-04T02:02:24.491Z,72.18
2018-08-04T02:03:24.490Z,72.47
2018-08-04T02:04:25.763Z,72.37
2018-08-04T02:06:24.484Z,72.47
2018-08-04T02:08:24.479Z,71.98
2018-08-04T02:09:24.476Z,72.18
2018-08-04T02:10:24.479Z,72.27
2018-08-04T02:11:24.472Z,72.08
2018-08-04T02:12:24.468Z,72.08
2018-08-04T02:13:24.466Z,72.18
2018-08-04T02:14:24.213Z,72.14
2018-08-04T02:15:24.461Z,72.24
2018-08-04T02:16:24.459Z,72.47
2018-08-04T02:17:24.458Z,72.27
2018-08-04T02:18:24.464Z,73.01
2018-08-04T02:19:24.201Z,72.43
2018-08-04T02:20:24.200Z,72.53
2018-08-04T02:21:24.197Z,72.53
2018-08-04T02:22:24.449Z,72.43
2018-08-04T02:23:24.192Z,72.72
2018-08-04T02:24:24.189Z,72.05
2018-08-04T02:25:24.188Z,72.43
2018-08-04T02:26:24.437Z,72.91
2018-08-04T02:27:24.435Z,72.63
2018-08-04T02:28:24.431Z,72.63
2018-08-04T02:29:24.429Z,72.63
2018-08-04T02:30:24.430Z,72.81
2018-08-04T02:31:24.433Z,72.14
2018-08-04T02:32:24.427Z,72.24
2018-08-04T02:33:24.421Z,72.43
2018-08-04T02:34:24.168Z,72.24
2018-08-04T02:35:24.165Z,72.63
2018-08-04T02:36:24.163Z,72.24
2018-08-04T02:37:24.411Z,72.72
2018-08-04T02:38:24.156Z,72.72
2018-08-04T02:39:24.406Z,72.53
2018-08-04T02:40:24.414Z,73.1
2018-08-04T02:41:24.405Z,72.72
2018-08-04T02:42:24.419Z,72.43
2018-08-04T02:43:25.386Z,72.63
2018-08-04T02:46:24.391Z,72.63
2018-08-04T02:47:24.392Z,73.1
2018-08-04T02:48:24.389Z,72.63
2018-08-04T02:49:24.390Z,73.01
2018-08-04T02:50:24.380Z,72.63
2018-08-04T02:51:24.380Z,72.91
2018-08-04T02:52:24.377Z,72.72
2018-08-04T02:54:24.370Z,73.3
2018-08-04T02:55:24.368Z,73.39
2018-08-04T02:56:24.366Z,73.39
2018-08-04T02:57:24.366Z,73.58
2018-08-04T02:58:24.364Z,73.3
2018-08-04T02:59:24.356Z,73.58
2018-08-04T03:00:24.104Z,73.49
2018-08-04T03:01:24.358Z,73.49
2018-08-04T03:02:24.352Z,73.49
2018-08-04T03:03:24.349Z,73.49
2018-08-04T03:04:24.093Z,73.1
2018-08-04T03:05:24.347Z,73.39
2018-08-04T03:06:24.345Z,73.68
2018-08-04T03:07:24.336Z,73.94
2018-08-04T03:08:24.469Z,73.94
2018-08-04T03:09:24.333Z,73.46
2018-08-04T03:10:24.329Z,73.39
2018-08-04T03:11:24.076Z,73.55
2018-08-04T03:12:24.327Z,73.78
2018-08-04T03:13:24.077Z,73.84
2018-08-04T03:14:24.320Z,74.22
2018-08-04T03:15:24.317Z,74.03
2018-08-04T03:16:24.318Z,74.22
2018-08-04T03:17:24.317Z,74.13
2018-08-04T03:19:24.308Z,73.94
2018-08-04T03:20:24.308Z,73.94
2018-08-04T03:21:24.303Z,74.32
2018-08-04T03:22:25.578Z,74.13
2018-08-04T03:23:24.302Z,74.32
2018-08-04T03:24:24.298Z,74.03
2018-08-04T03:25:24.294Z,73.74
2018-08-04T03:26:24.296Z,74.03
2018-08-04T03:27:24.288Z,74.61
2018-08-04T03:28:24.283Z,74.61
2018-08-04T03:29:24.034Z,74.32
2018-08-04T03:30:24.322Z,74.61
2018-08-04T03:31:24.278Z,74.13
2018-08-04T03:32:24.274Z,74.22
2018-08-04T03:33:24.270Z,74.32
2018-08-04T03:34:24.268Z,74.71
2018-08-04T03:35:24.266Z,75.09
2018-08-04T03:36:24.263Z,74.61
2018-08-04T03:37:24.011Z,74.51
2018-08-04T03:40:24.253Z,74.9
2018-08-04T03:41:23.999Z,75.57
2018-08-04T03:42:24.248Z,75.38
2018-08-04T03:43:24.249Z,75.57
2018-08-04T03:44:24.241Z,75.57
2018-08-04T03:45:25.001Z,75.28
2018-08-04T03:46:24.237Z,75.28
2018-08-04T03:47:24.233Z,75.28
2018-08-04T03:48:24.232Z,75.48
2018-08-04T03:52:24.223Z,74.65
2018-08-04T03:53:23.968Z,74.74
2018-08-04T03:54:24.225Z,74.45
2018-08-04T03:55:24.214Z,74.45
2018-08-04T03:56:24.214Z,74.74
2018-08-04T03:57:24.460Z,74.74
2018-08-04T03:58:24.206Z,74.65
2018-08-04T03:59:24.203Z,74.65
2018-08-04T04:00:24.202Z,74.45
2018-08-04T04:01:23.948Z,74.84
2018-08-04T04:02:24.198Z,74.55
2018-08-04T04:03:24.204Z,74.65
2018-08-04T04:04:24.193Z,74.65
2018-08-04T04:05:24.189Z,74.45
2018-08-04T04:06:24.187Z,74.49
2018-08-04T04:07:24.185Z,74.68
2018-08-04T04:08:24.183Z,74.49
2018-08-04T04:09:24.180Z,74.97
2018-08-04T04:10:24.179Z,74.2
2018-08-04T04:11:24.180Z,73.82
2018-08-04T04:12:24.175Z,73.72
2018-08-04T04:13:24.171Z,73.62
2018-08-04T04:14:24.172Z,72.85
2018-08-04T04:15:24.168Z,72.47
2018-08-04T04:16:24.166Z,72.31
2018-08-04T04:17:24.164Z,72.5
2018-08-04T04:18:24.161Z,71.92
2018-08-04T04:19:24.163Z,71.67
2018-08-04T04:20:24.160Z,71.19
2018-08-04T04:21:23.905Z,71.58
2018-08-04T04:22:23.904Z,71
2018-08-04T04:23:23.901Z,70.74
2018-08-04T04:24:24.160Z,70.06
2018-08-04T04:25:24.153Z,69.52
2018-08-04T04:26:24.149Z,69.04
2018-08-04T04:27:24.153Z,69.07
2018-08-04T04:28:24.398Z,68.88
2018-08-04T04:29:24.154Z,69.01
2018-08-04T04:30:24.147Z,69.49
2018-08-04T04:31:24.145Z,70.01
2018-08-04T04:32:24.145Z,69.92
2018-08-04T04:33:24.148Z,69.75
2018-08-04T04:34:24.145Z,69.08
2018-08-04T04:35:24.145Z,69.37
2018-08-04T04:36:24.148Z,69.11
2018-08-04T04:37:24.146Z,67.95
2018-08-04T04:38:24.146Z,67.88
2018-08-04T04:39:24.147Z,66.53
2018-08-04T04:40:24.148Z,65.2
2018-08-04T04:41:23.898Z,65.01
2018-08-04T04:42:23.898Z,64.75
2018-08-04T04:43:24.155Z,64.37
2018-08-04T04:44:24.160Z,63.1
2018-08-04T04:45:24.158Z,62.46
2018-08-04T04:46:24.156Z,61.98
2018-08-04T04:47:24.170Z,60.94
2018-08-04T04:48:23.964Z,60.74
2018-08-04T04:49:24.163Z,59.8
2018-08-04T04:50:23.914Z,58.93
2018-08-04T04:51:24.168Z,58.54
2018-08-04T04:52:24.171Z,57.21
2018-08-04T04:53:24.175Z,57.01
2018-08-04T04:54:24.179Z,56.56
2018-08-04T04:55:24.271Z,56.36
2018-08-04T04:56:23.940Z,55.78
2018-08-04T04:57:24.189Z,54.93
2018-08-04T04:58:24.192Z,54.86
2018-08-04T04:59:24.196Z,53.5
2018-08-04T05:00:24.199Z,52.72
2018-08-04T05:01:24.204Z,52.75
2018-08-04T05:02:24.208Z,52.48
2018-08-04T05:03:24.212Z,52.28
2018-08-04T05:04:23.967Z,51.8
2018-08-04T05:05:24.221Z,51.8
2018-08-04T05:06:23.974Z,51.82
2018-08-04T05:07:24.230Z,51.73
2018-08-04T05:08:24.236Z,51.34
2018-08-04T05:09:24.243Z,50.68
2018-08-04T05:10:24.250Z,50.29
2018-08-04T05:11:24.252Z,49.83
2018-08-04T05:12:24.266Z,49.24
2018-08-04T05:13:24.424Z,48.85
2018-08-04T05:14:24.017Z,48.68
2018-08-04T05:15:24.278Z,47.9
2018-08-04T05:16:24.030Z,48.02
2018-08-04T05:17:24.289Z,47.24
2018-08-04T05:18:24.294Z,47.46
2018-08-04T05:19:24.301Z,46.48
2018-08-04T05:20:24.306Z,46.39
2018-08-04T05:21:24.361Z,45.7
2018-08-04T05:22:24.326Z,45.82
2018-08-04T05:23:24.329Z,45.53
2018-08-04T05:24:24.349Z,45.36
2018-08-04T05:25:24.340Z,44.96
2018-08-04T05:26:24.099Z,44.49
2018-08-04T05:27:24.361Z,43.91
2018-08-04T05:28:24.365Z,43.63
2018-08-04T05:29:24.372Z,42.76
2018-08-04T05:30:24.380Z,41.99
2018-08-04T05:31:24.391Z,41.72
2018-08-04T05:32:24.398Z,41.52
2018-08-04T05:33:24.409Z,41.64
2018-08-04T05:34:24.413Z,41.27
2018-08-04T05:35:24.424Z,40.68
2018-08-04T05:36:24.431Z,40.51
2018-08-04T05:37:24.507Z,39.82
2018-08-04T05:38:24.195Z,39.45
2018-08-04T05:39:24.455Z,39.27
2018-08-04T05:40:24.469Z,38.88
2018-08-04T05:41:24.477Z,38.6
2018-08-04T05:42:24.481Z,37.72
2018-08-04T05:43:24.360Z,37.74
2018-08-04T05:44:24.500Z,37.95
2018-08-04T05:45:24.511Z,37.85
2018-08-04T05:46:37.251Z,37.76
2018-08-04T05:47:24.277Z,37.48
2018-08-04T05:48:24.539Z,37.18
2018-08-04T05:49:24.548Z,36.4
2018-08-04T05:50:24.563Z,36.8
2018-08-04T05:51:24.576Z,36.32
2018-08-04T05:52:24.578Z,36.11
2018-08-04T05:53:24.588Z,35.35
2018-08-04T05:54:24.346Z,35.05
2018-08-04T05:55:24.608Z,35.27
2018-08-04T05:56:24.621Z,35.17
2018-08-04T05:57:24.629Z,34.97
2018-08-04T05:58:24.640Z,34.87
2018-08-04T05:59:24.650Z,34.59
2018-08-04T06:00:24.671Z,34.39
2018-08-04T06:01:24.695Z,34.49
2018-08-04T06:02:24.696Z,33.91
2018-08-04T06:03:24.483Z,33.82
2018-08-04T06:04:24.714Z,34.03
2018-08-04T06:05:24.466Z,33.44
2018-08-04T06:06:24.732Z,33.54
2018-08-04T06:07:37.471Z,33.06
2018-08-04T06:08:24.749Z,32.97
2018-08-04T06:09:24.765Z,32.88
2018-08-04T06:10:24.772Z,32.19
2018-08-04T06:11:24.784Z,32.29
2018-08-04T06:12:24.797Z,31.9
2018-08-04T06:13:24.565Z,32.21
2018-08-04T06:14:24.609Z,32.01
2018-08-04T06:15:24.829Z,31.62
2018-08-04T06:16:24.848Z,31.62
2018-08-04T06:17:24.855Z,31.13
2018-08-04T06:18:24.867Z,31.23
2018-08-04T06:19:24.882Z,30.83
2018-08-04T06:20:24.894Z,30.55
2018-08-04T06:21:24.905Z,30.65
2018-08-04T06:22:24.919Z,30.65
2018-08-04T06:23:24.931Z,30.46
2018-08-04T06:24:24.962Z,30.67
2018-08-04T06:25:24.956Z,30.08
2018-08-04T06:26:24.972Z,29.48
2018-08-04T06:27:24.982Z,29.68
2018-08-04T06:28:25.166Z,30.09
2018-08-04T06:29:25.011Z,29.5
2018-08-04T06:30:25.042Z,29.9
2018-08-04T06:31:25.036Z,29.79
2018-08-04T06:32:25.048Z,29.81
2018-08-04T06:33:25.061Z,29.61
2018-08-04T06:34:25.073Z,29.21
2018-08-04T06:35:25.094Z,28.72
2018-08-04T06:36:25.106Z,28.14
2018-08-04T06:37:25.117Z,28.04
2018-08-04T06:38:24.877Z,27.94
2018-08-04T06:39:25.143Z,28.25
2018-08-04T06:40:25.163Z,28.05
2018-08-04T06:41:25.175Z,27.36
2018-08-04T06:42:25.184Z,27.37
2018-08-04T06:43:25.199Z,27.46
2018-08-04T06:44:25.229Z,27.37
2018-08-04T06:45:25.228Z,26.78
2018-08-04T06:46:25.241Z,26.58
2018-08-04T06:47:25.265Z,26.58
2018-08-04T06:48:25.323Z,26.69
2018-08-04T06:49:25.033Z,26.49
2018-08-04T06:50:25.299Z,26.39
2018-08-04T06:51:25.315Z,26.79
2018-08-04T06:52:25.331Z,26.09
2018-08-04T06:53:25.347Z,26.49
2018-08-04T06:54:25.360Z,26.39
2018-08-04T06:55:25.378Z,26.59
2018-08-04T06:56:25.394Z,26.69
2018-08-04T06:57:25.406Z,26.2
2018-08-04T06:58:25.569Z,25.81
2018-08-04T06:59:25.439Z,25.12
2018-08-04T07:00:25.445Z,25.31
2018-08-04T07:01:25.459Z,25.31
2018-08-04T07:02:25.475Z,25.21
2018-08-04T07:03:25.493Z,24.83
2018-08-04T07:04:25.505Z,24.73
2018-08-04T07:05:25.520Z,24.83
2018-08-04T07:06:25.539Z,24.73
2018-08-04T07:07:25.554Z,24.54
2018-08-04T07:08:25.565Z,24.74
2018-08-04T07:09:25.582Z,24.64
2018-08-04T07:10:25.599Z,24.54
2018-08-04T07:11:25.615Z,24.64
2018-08-04T07:12:25.640Z,23.75
2018-08-04T07:13:25.645Z,24.54
2018-08-04T07:14:25.728Z,24.54
2018-08-04T07:15:25.681Z,24.54
2018-08-04T07:16:25.695Z,24.34
2018-08-04T07:17:25.707Z,23.75
2018-08-04T07:18:25.723Z,23.65
2018-08-04T07:19:25.486Z,23.65
2018-08-04T07:20:25.754Z,24.34
2018-08-04T07:21:25.772Z,24.54
2018-08-04T07:22:25.789Z,24.84
2018-08-04T07:23:25.801Z,24.44
2018-08-04T07:24:25.818Z,24.64
2018-08-04T07:25:25.833Z,24.34
2018-08-04T07:26:25.852Z,24.74
2018-08-04T07:27:25.865Z,24.44
2018-08-04T07:28:25.908Z,24.24
2018-08-04T07:29:25.903Z,24.43
2018-08-04T07:30:25.915Z,24.34
2018-08-04T07:31:25.941Z,24.34
2018-08-04T07:32:25.695Z,24.64
2018-08-04T07:33:25.962Z,25.04
2018-08-04T07:34:26.149Z,24.64
2018-08-04T07:35:25.993Z,25.02
2018-08-04T07:36:26.011Z,24.43
2018-08-04T07:37:26.026Z,24.15
2018-08-04T07:38:26.048Z,24.53
2018-08-04T07:39:26.060Z,24.53
2018-08-04T07:40:25.878Z,24.33
2018-08-04T07:41:26.093Z,24.53
2018-08-04T07:42:26.111Z,24.43
2018-08-04T07:43:26.125Z,24.62
2018-08-04T07:44:26.139Z,24.33
2018-08-04T07:45:26.157Z,24.72
2018-08-04T07:46:25.931Z,25.01
2018-08-04T07:47:26.217Z,25.01
2018-08-04T07:48:26.207Z,25.21
2018-08-04T07:49:26.221Z,25.81
2018-08-04T07:50:26.270Z,25.81
2018-08-04T07:51:26.255Z,25.71
2018-08-04T07:52:26.275Z,25.61
2018-08-04T07:53:26.287Z,25.61
2018-08-04T07:54:26.052Z,25.81
2018-08-04T07:55:26.318Z,25.71
2018-08-04T07:56:26.334Z,25.61
2018-08-04T07:57:26.351Z,26.09
2018-08-04T07:58:26.369Z,25.6
2018-08-04T07:59:26.500Z,25.99
2018-08-04T08:00:26.148Z,25.81
2018-08-04T08:01:26.419Z,26.59
2018-08-04T08:02:26.182Z,26.59
2018-08-04T08:03:26.452Z,25.99
2018-08-04T08:04:26.469Z,26.09
2018-08-04T08:05:26.486Z,26.29
2018-08-04T08:06:26.518Z,25.6
2018-08-04T08:07:26.767Z,25.3
2018-08-04T08:08:26.531Z,25.4
2018-08-04T08:09:26.547Z,25.6
2018-08-04T08:10:26.760Z,25.7
2018-08-04T08:11:26.616Z,26.18
2018-08-04T08:12:26.595Z,25.98
2018-08-04T08:13:26.612Z,25.98
2018-08-04T08:14:26.384Z,26.28
2018-08-04T08:15:26.652Z,26.08
2018-08-04T08:16:26.665Z,26.58
2018-08-04T08:17:26.677Z,26.76
2018-08-04T08:18:26.692Z,27.08
2018-08-04T08:19:26.468Z,26.67
2018-08-04T08:20:26.476Z,27.16
2018-08-04T08:21:26.740Z,27.06
2018-08-04T08:22:26.759Z,27.16
2018-08-04T08:23:26.792Z,27.16
2018-08-04T08:24:26.791Z,27.16
2018-08-04T08:25:26.808Z,27.06
2018-08-04T08:26:26.830Z,26.76
2018-08-04T08:27:26.840Z,27.56
2018-08-04T08:28:26.856Z,27.75
2018-08-04T08:29:26.921Z,27.75
2018-08-04T08:30:26.891Z,27.75
2018-08-04T08:31:27.113Z,27.06
2018-08-04T08:32:26.672Z,27.95
2018-08-04T08:33:26.945Z,27.86
2018-08-04T08:34:26.956Z,27.16
2018-08-04T08:35:26.978Z,27.16
2018-08-04T08:36:26.737Z,27.16
2018-08-04T08:37:27.004Z,27.36
2018-08-04T08:38:27.024Z,27.04
2018-08-04T08:39:26.786Z,27.34
2018-08-04T08:40:27.166Z,27.15
2018-08-04T08:41:26.837Z,27.94
2018-08-04T08:42:27.088Z,28.23
2018-08-04T08:43:27.106Z,28.23
2018-08-04T08:44:26.869Z,28.23
2018-08-04T08:45:27.141Z,28.73
2018-08-04T08:46:27.151Z,28.13
2018-08-04T08:47:27.168Z,28.92
2018-08-04T08:48:27.185Z,29
2018-08-04T08:49:26.950Z,29.39
2018-08-04T08:50:27.216Z,29
2018-08-04T08:51:27.233Z,29.58
2018-08-04T08:52:27.253Z,29.47
2018-08-04T08:53:27.948Z,30.16
2018-08-04T08:54:27.279Z,29.55
2018-08-04T08:55:27.305Z,30.05
2018-08-04T08:56:27.309Z,29.93
2018-08-04T08:57:27.069Z,30.04
2018-08-04T08:58:27.081Z,30.41
2018-08-04T08:59:27.353Z,30.71
2018-08-04T09:00:27.360Z,30.99
2018-08-04T09:01:27.511Z,31.29
2018-08-04T09:02:27.394Z,31.76
2018-08-04T09:03:27.400Z,31.47
2018-08-04T09:04:27.410Z,32.16
2018-08-04T09:05:27.421Z,32.24
2018-08-04T09:06:27.430Z,32.73
2018-08-04T09:07:27.443Z,32.34
2018-08-04T09:08:27.456Z,32.82
2018-08-04T09:09:27.213Z,32.6
2018-08-04T09:10:27.475Z,32.9
2018-08-04T09:11:27.486Z,33.1
2018-08-04T09:12:27.497Z,33.48
2018-08-04T09:13:27.506Z,33.28
2018-08-04T09:14:27.265Z,33.48
2018-08-04T09:15:27.275Z,33.75
2018-08-04T09:16:27.537Z,33.26
2018-08-04T09:17:27.546Z,33.17
2018-08-04T09:18:27.560Z,33.25
2018-08-04T09:19:27.312Z,33.25
2018-08-04T09:20:27.577Z,33.44
2018-08-04T09:21:27.584Z,32.95
2018-08-04T09:22:27.342Z,33.25
2018-08-04T09:23:27.604Z,34.01
2018-08-04T09:24:27.615Z,33.72
2018-08-04T09:25:27.621Z,34.31
2018-08-04T09:26:27.633Z,34.7
2018-08-04T09:27:27.635Z,33.8
2018-08-04T09:28:27.646Z,33.31
2018-08-04T09:29:27.404Z,33.12
2018-08-04T09:30:27.663Z,33.7
2018-08-04T09:31:27.670Z,34.3
2018-08-04T09:32:27.680Z,34.67
2018-08-04T09:33:27.688Z,33.7
2018-08-04T09:34:27.452Z,34.47
2018-08-04T09:35:27.705Z,33.79
2018-08-04T09:36:27.713Z,33.39
2018-08-04T09:37:27.723Z,33.2
2018-08-04T09:38:27.730Z,33.69
2018-08-04T09:39:27.757Z,34.67
2018-08-04T09:40:27.750Z,35.06
2018-08-04T09:41:27.754Z,33.89
2018-08-04T09:42:27.512Z,33.29
2018-08-04T09:43:27.773Z,33.69
2018-08-04T09:44:27.528Z,33.49
2018-08-04T09:45:27.788Z,32.81
2018-08-04T09:46:27.796Z,32.71
2018-08-04T09:47:27.552Z,32.41
2018-08-04T09:48:27.817Z,32.69
2018-08-04T09:49:27.823Z,31.53
2018-08-04T09:50:27.827Z,31.71
2018-08-04T09:51:27.834Z,31.41
2018-08-04T09:52:27.895Z,31.41
2018-08-04T09:53:27.850Z,31.32
2018-08-04T09:54:27.607Z,31.71
2018-08-04T09:55:27.869Z,33.08
2018-08-04T09:56:27.872Z,33.08
2018-08-04T09:57:27.884Z,32.89
2018-08-04T09:58:27.890Z,32.68
2018-08-04T09:59:27.899Z,32.57
2018-08-04T10:00:27.904Z,32.78
2018-08-04T10:01:27.914Z,32.78
2018-08-04T10:02:27.920Z,33.07
2018-08-04T10:03:27.927Z,32.38
2018-08-04T10:04:27.938Z,32.57
2018-08-04T10:05:27.953Z,32.57
2018-08-04T10:06:27.951Z,32.89
2018-08-04T10:07:27.957Z,31.99
2018-08-04T10:08:27.714Z,32.18
2018-08-04T10:09:27.986Z,32.48
2018-08-04T10:10:27.980Z,33.36
2018-08-04T10:11:28.171Z,33.48
2018-08-04T10:12:27.997Z,33.67
2018-08-04T10:13:28.002Z,32.69
2018-08-04T10:14:28.016Z,32.1
2018-08-04T10:15:27.768Z,31.51
2018-08-04T10:16:27.774Z,32.79
2018-08-04T10:17:28.034Z,32.79
2018-08-04T10:18:28.042Z,32.69
2018-08-04T10:19:28.050Z,32.4
2018-08-04T10:20:27.805Z,32.4
2018-08-04T10:21:28.075Z,32.98
2018-08-04T10:22:28.072Z,32.5
2018-08-04T10:23:28.082Z,32.2
2018-08-04T10:24:27.839Z,33.29
2018-08-04T10:25:28.096Z,32.31
2018-08-04T10:26:28.103Z,31.92
2018-08-04T10:27:28.110Z,31.23
2018-08-04T10:28:28.118Z,31.92
2018-08-04T10:29:27.873Z,32.51
2018-08-04T10:30:28.142Z,33.2
2018-08-04T10:31:28.143Z,31.15
2018-08-04T10:32:28.296Z,31.35
2018-08-04T10:33:28.156Z,30.95
2018-08-04T10:34:28.162Z,30.66
2018-08-04T10:35:28.169Z,31.64
2018-08-04T10:36:28.184Z,30.27
2018-08-04T10:37:28.185Z,30.27
2018-08-04T10:38:28.203Z,30.36
2018-08-04T10:39:27.951Z,30.76
2018-08-04T10:40:28.208Z,30.27
2018-08-04T10:41:28.216Z,30.46
2018-08-04T10:42:28.225Z,30.27
2018-08-04T10:43:27.980Z,30.36
2018-08-04T10:44:28.241Z,30.27
2018-08-04T10:45:28.249Z,30.27
2018-08-04T10:46:28.256Z,30.07
2018-08-04T10:47:28.012Z,29.77
2018-08-04T10:48:28.272Z,30.38
2018-08-04T10:49:28.034Z,30.08
2018-08-04T10:50:28.294Z,30.36
2018-08-04T10:51:28.302Z,30.56
2018-08-04T10:52:28.304Z,29.97
2018-08-04T10:53:28.311Z,30.18
2018-08-04T10:54:28.320Z,30.28
2018-08-04T10:55:28.337Z,29.77
2018-08-04T10:56:28.084Z,29.99
2018-08-04T10:57:28.342Z,30.38
2018-08-04T10:58:28.348Z,30.58
2018-08-04T10:59:28.105Z,29.69
2018-08-04T11:00:28.113Z,29.79
2018-08-04T11:01:28.374Z,30.28
2018-08-04T11:02:28.380Z,30.08
2018-08-04T11:03:28.394Z,30.38
2018-08-04T11:04:28.144Z,29.69
2018-08-04T11:05:28.404Z,29.31
2018-08-04T11:06:28.411Z,29.41
2018-08-04T11:07:28.421Z,29.41
2018-08-04T11:08:28.177Z,29.11
2018-08-04T11:09:28.444Z,29.02
2018-08-04T11:10:28.446Z,28.63
2018-08-04T11:11:28.452Z,28.92
2018-08-04T11:12:28.542Z,29.02
2018-08-04T11:13:28.487Z,29.21
2018-08-04T11:14:28.227Z,28.74
2018-08-04T11:15:28.486Z,28.83
2018-08-04T11:16:28.493Z,28.54
2018-08-04T11:17:28.501Z,28.26
2018-08-04T11:18:28.518Z,27.76
2018-08-04T11:19:28.528Z,27.57
2018-08-04T11:20:28.563Z,28.06
2018-08-04T11:21:28.537Z,28.36
2018-08-04T11:22:28.550Z,28.16
2018-08-04T11:23:28.553Z,28.16
2018-08-04T11:24:28.336Z,28.16
2018-08-04T11:25:28.569Z,28.66
2018-08-04T11:26:28.578Z,28.08
2018-08-04T11:27:28.335Z,28.09
2018-08-04T11:28:28.596Z,28.19
2018-08-04T11:29:28.622Z,27.01
2018-08-04T11:30:28.614Z,26.83
2018-08-04T11:31:28.622Z,26.64
2018-08-04T11:32:28.629Z,25.27
2018-08-04T11:33:28.644Z,25.46
2018-08-04T11:34:28.397Z,25.66
2018-08-04T11:35:28.662Z,25.66
2018-08-04T11:36:28.667Z,25.66
2018-08-04T11:37:28.678Z,25.27
2018-08-04T11:38:28.688Z,25.46
2018-08-04T11:39:28.450Z,25.37
2018-08-04T11:40:28.704Z,25.16
2018-08-04T11:41:28.714Z,25.46
2018-08-04T11:42:28.723Z,25.97
2018-08-04T11:43:28.731Z,26.36
2018-08-04T11:44:28.745Z,25.89
2018-08-04T11:45:28.885Z,25.68
2018-08-04T11:46:28.760Z,25.19
2018-08-04T11:47:28.769Z,25.4
2018-08-04T11:48:28.780Z,25.5
2018-08-04T11:49:28.796Z,25.4
2018-08-04T11:50:28.802Z,24.52
2018-08-04T11:51:28.853Z,25.42
2018-08-04T11:52:28.567Z,24.22
2018-08-04T11:53:28.576Z,24.21
2018-08-04T11:54:28.836Z,24.41
2018-08-04T11:55:28.847Z,24.72
2018-08-04T11:56:28.883Z,24.22
2018-08-04T11:57:28.864Z,24.62
2018-08-04T11:58:29.105Z,25.12
2018-08-04T11:59:28.634Z,25.21
2018-08-04T12:00:28.647Z,25.32
2018-08-04T12:01:28.904Z,24.33
2018-08-04T12:02:28.919Z,24.63
2018-08-04T12:03:28.675Z,25.13
2018-08-04T12:04:28.938Z,24.73
2018-08-04T12:05:29.094Z,24.73
2018-08-04T12:06:28.708Z,24.63
2018-08-04T12:07:28.737Z,24.72
2018-08-04T12:08:28.979Z,24.92
2018-08-04T12:09:29.022Z,25.12
2018-08-04T12:10:29.005Z,24.92
2018-08-04T12:11:29.009Z,25.61
2018-08-04T12:12:28.767Z,25.01
2018-08-04T12:13:29.028Z,24.41
2018-08-04T12:14:28.784Z,24.71
2018-08-04T12:15:29.048Z,24.99
2018-08-04T12:16:29.055Z,25.87
2018-08-04T12:17:28.816Z,25.56
2018-08-04T12:18:29.079Z,25.66
2018-08-04T12:19:29.088Z,25.66
2018-08-04T12:20:29.095Z,26.14
2018-08-04T12:21:29.133Z,26.43
2018-08-04T12:22:29.115Z,26.42
2018-08-04T12:23:29.123Z,26.93
2018-08-04T12:24:29.136Z,26.72
2018-08-04T12:25:29.246Z,26.92
2018-08-04T12:26:29.153Z,27.01
2018-08-04T12:27:29.179Z,27.22
2018-08-04T12:28:29.172Z,27.01
2018-08-04T12:29:29.180Z,26.81
2018-08-04T12:30:29.195Z,26.81
2018-08-04T12:31:29.346Z,27.3
2018-08-04T12:32:28.959Z,27.87
2018-08-04T12:33:29.219Z,27.58
2018-08-04T12:34:29.237Z,28.08
2018-08-04T12:35:29.238Z,28.17
2018-08-04T12:36:29.253Z,28.66
2018-08-04T12:37:29.371Z,28.37
2018-08-04T12:38:29.263Z,28.37
2018-08-04T12:39:29.022Z,27.58
2018-08-04T12:40:29.284Z,28.08
2018-08-04T12:41:29.295Z,28.08
2018-08-04T12:42:29.304Z,28.08
2018-08-04T12:43:29.309Z,28.17
2018-08-04T12:44:29.319Z,28.16
2018-08-04T12:45:29.089Z,27.97
2018-08-04T12:46:29.336Z,28.16
2018-08-04T12:47:29.349Z,28.16
2018-08-04T12:48:29.370Z,28.26
2018-08-04T12:49:29.364Z,28.16
2018-08-04T12:50:29.373Z,28.16
2018-08-04T12:51:29.391Z,28.26
2018-08-04T12:52:29.397Z,28.17
2018-08-04T12:53:29.160Z,27.68
2018-08-04T12:54:29.610Z,27.39
2018-08-04T12:55:29.417Z,26.99
2018-08-04T12:56:29.428Z,27.39
2018-08-04T12:57:29.441Z,27.09
2018-08-04T12:58:29.268Z,27.39
2018-08-04T12:59:29.497Z,26.99
2018-08-04T13:00:29.463Z,27.19
2018-08-04T13:01:29.469Z,27.78
2018-08-04T13:02:29.515Z,27.79
2018-08-04T13:03:29.240Z,27.69
2018-08-04T13:04:29.497Z,28.09
2018-08-04T13:05:29.512Z,28.38
2018-08-04T13:06:29.274Z,27.99
2018-08-04T13:07:29.534Z,28.19
2018-08-04T13:08:29.542Z,27.79
2018-08-04T13:09:29.543Z,28
2018-08-04T13:10:29.300Z,27.61
2018-08-04T13:11:29.560Z,27.62
2018-08-04T13:12:29.319Z,27.92